Time;durP1;ratioP1;P1;durP2;ratioP2;P2;SDS_P1;SDS_P2;PMS_P1;PMS_P2;Temp;Humidity;BMP_temperature;BMP_pressure;BME280_temperature;BME280_humidity;BME280_pressure;Samples;Min_cycle;Max_cycle;Signal;HPM_P1;HPM_P2
2024/02/17 00:00:22;;;;;;;15.40;10.18;;;;;;;;;;4989820;28;20046;-74
2024/02/17 00:02:47;;;;;;;14.75;9.38;;;;;;;;;;4990805;28;20141;-74
2024/02/17 00:05:13;;;;;;;10.73;7.97;;;;;;;;;;4991064;28;20030;-74
2024/02/17 00:07:38;;;;;;;15.50;9.07;;;;;;;;;;4990655;28;20042;-74
2024/02/17 00:10:03;;;;;;;15.35;8.32;;;;;;;;;;4993131;28;20031;-74
2024/02/17 00:12:29;;;;;;;15.40;9.60;;;;;;;;;;4993037;28;20483;-74
2024/02/17 00:14:54;;;;;;;15.50;9.77;;;;;;;;;;4993056;28;20446;-74
2024/02/17 00:17:19;;;;;;;20.77;9.93;;;;;;;;;;4994481;28;20027;-74
2024/02/17 00:19:46;;;;;;;14.23;9.43;;;;;;;;;;4991209;28;20522;-74
2024/02/17 00:22:11;;;;;;;12.25;8.27;;;;;;;;;;4993393;28;20046;-74
2024/02/17 00:24:36;;;;;;;16.92;10.45;;;;;;;;;;4998916;28;20133;-74
2024/02/17 00:27:02;;;;;;;16.73;9.77;;;;;;;;;;4994464;28;20030;-74
2024/02/17 00:29:27;;;;;;;13.88;9.55;;;;;;;;;;4993289;28;20305;-74
2024/02/17 00:31:52;;;;;;;17.00;10.38;;;;;;;;;;4994003;28;20029;-74
2024/02/17 00:34:18;;;;;;;16.17;10.23;;;;;;;;;;4994076;28;20032;-73
2024/02/17 00:36:43;;;;;;;14.18;9.13;;;;;;;;;;4990025;28;20551;-74
2024/02/17 00:39:09;;;;;;;15.27;10.70;;;;;;;;;;4994024;28;20031;-74
2024/02/17 00:41:35;;;;;;;15.80;9.93;;;;;;;;;;4993777;28;20038;-74
2024/02/17 00:44:00;;;;;;;12.88;9.60;;;;;;;;;;4994696;28;20027;-74
2024/02/17 00:46:25;;;;;;;15.00;10.05;;;;;;;;;;4994911;28;20059;-74
2024/02/17 00:48:50;;;;;;;14.37;8.47;;;;;;;;;;4994755;28;20102;-74
2024/02/17 00:51:15;;;;;;;13.00;8.77;;;;;;;;;;4993462;28;20386;-74
2024/02/17 00:53:44;;;;;;;14.57;9.40;;;;;;;;;;4995863;28;20998;-74
2024/02/17 00:56:09;;;;;;;14.00;8.32;;;;;;;;;;4993913;28;20041;-74
2024/02/17 00:58:35;;;;;;;16.02;9.00;;;;;;;;;;4993604;28;20399;-73
2024/02/17 01:01:00;;;;;;;14.05;9.65;;;;;;;;;;4993300;28;20061;-74
2024/02/17 01:03:25;;;;;;;14.38;9.05;;;;;;;;;;4993472;28;20113;-74
2024/02/17 01:05:50;;;;;;;15.20;8.93;;;;;;;;;;4995633;28;20045;-74
2024/02/17 01:08:16;;;;;;;16.15;11.57;;;;;;;;;;4993490;28;20487;-74
2024/02/17 01:10:41;;;;;;;14.15;10.18;;;;;;;;;;4993185;28;20442;-74
2024/02/17 01:13:07;;;;;;;16.70;10.47;;;;;;;;;;4993534;28;20031;-74
2024/02/17 01:15:32;;;;;;;13.15;8.98;;;;;;;;;;4993125;28;20285;-74
2024/02/17 01:17:57;;;;;;;13.83;9.40;;;;;;;;;;4993528;28;20026;-74
2024/02/17 01:20:22;;;;;;;18.17;10.95;;;;;;;;;;4992589;28;20627;-74
2024/02/17 01:22:47;;;;;;;12.75;8.35;;;;;;;;;;4993405;28;20026;-74
2024/02/17 01:25:12;;;;;;;14.27;9.63;;;;;;;;;;4998574;28;20034;-74
2024/02/17 01:27:38;;;;;;;12.25;8.20;;;;;;;;;;4993159;28;20277;-74
2024/02/17 01:30:04;;;;;;;14.30;8.80;;;;;;;;;;4993065;28;20038;-74
2024/02/17 01:32:29;;;;;;;11.85;8.45;;;;;;;;;;4992816;28;20109;-74
2024/02/17 01:34:54;;;;;;;14.67;9.60;;;;;;;;;;4993253;28;20498;-74
2024/02/17 01:37:20;;;;;;;18.97;11.50;;;;;;;;;;4992919;28;20273;-74
2024/02/17 01:39:45;;;;;;;16.85;9.90;;;;;;;;;;4993045;28;20269;-73
2024/02/17 01:42:11;;;;;;;14.70;9.35;;;;;;;;;;4992410;28;20523;-73
2024/02/17 01:44:36;;;;;;;14.25;9.63;;;;;;;;;;4992834;28;20030;-74
2024/02/17 01:47:02;;;;;;;17.08;10.93;;;;;;;;;;4993053;28;20027;-74
2024/02/17 01:49:27;;;;;;;12.65;8.98;;;;;;;;;;4992692;28;20044;-74
2024/02/17 01:51:53;;;;;;;17.15;10.85;;;;;;;;;;4992454;28;20430;-74
2024/02/17 01:54:18;;;;;;;14.65;10.18;;;;;;;;;;4992725;28;20064;-74
2024/02/17 01:56:45;;;;;;;17.27;10.90;;;;;;;;;;4992834;28;20032;-74
2024/02/17 01:59:10;;;;;;;14.05;10.10;;;;;;;;;;4992648;28;20034;-74
2024/02/17 02:01:37;;;;;;;14.70;9.70;;;;;;;;;;4992345;28;20475;-74
2024/02/17 02:04:03;;;;;;;15.23;9.38;;;;;;;;;;4992645;28;20027;-74
2024/02/17 02:06:29;;;;;;;15.82;9.15;;;;;;;;;;4992674;28;20399;-74
2024/02/17 02:08:54;;;;;;;15.02;10.32;;;;;;;;;;4992553;28;20104;-74
2024/02/17 02:11:20;;;;;;;16.02;10.43;;;;;;;;;;4991854;28;20612;-74
2024/02/17 02:13:45;;;;;;;15.68;10.52;;;;;;;;;;4992382;28;20041;-74
2024/02/17 02:16:10;;;;;;;16.33;10.68;;;;;;;;;;4992481;28;20030;-74
2024/02/17 02:18:36;;;;;;;14.10;9.63;;;;;;;;;;4991213;28;20026;-74
2024/02/17 02:21:01;;;;;;;15.80;9.77;;;;;;;;;;4991936;28;20164;-74
2024/02/17 02:23:26;;;;;;;18.25;11.05;;;;;;;;;;4991773;28;20165;-74
2024/02/17 02:25:52;;;;;;;15.55;10.00;;;;;;;;;;4990822;28;20029;-74
2024/02/17 02:28:17;;;;;;;14.43;10.20;;;;;;;;;;4992177;28;20441;-74
2024/02/17 02:30:42;;;;;;;12.45;9.30;;;;;;;;;;4990157;28;20189;-74
2024/02/17 02:33:07;;;;;;;14.40;10.35;;;;;;;;;;4991741;28;20034;-74
2024/02/17 02:35:32;;;;;;;15.23;9.47;;;;;;;;;;4993694;28;20038;-74
2024/02/17 02:37:57;;;;;;;15.05;9.55;;;;;;;;;;4991529;28;20663;-74
2024/02/17 02:40:22;;;;;;;15.30;9.43;;;;;;;;;;4991393;28;20049;-74
2024/02/17 02:42:48;;;;;;;14.63;9.63;;;;;;;;;;4992025;28;20076;-74
2024/02/17 02:45:13;;;;;;;14.40;9.60;;;;;;;;;;4991667;28;20042;-74
2024/02/17 02:47:38;;;;;;;16.70;10.13;;;;;;;;;;4991871;28;20046;-74
2024/02/17 02:50:03;;;;;;;18.25;11.27;;;;;;;;;;4991831;28;20388;-74
2024/02/17 02:52:29;;;;;;;14.93;9.60;;;;;;;;;;4991308;28;20122;-74
2024/02/17 02:54:54;;;;;;;17.33;10.25;;;;;;;;;;4992533;28;20459;-74
2024/02/17 02:57:19;;;;;;;13.43;8.93;;;;;;;;;;4994077;28;20038;-74
2024/02/17 02:59:44;;;;;;;12.50;8.82;;;;;;;;;;4991412;28;20049;-74
2024/02/17 03:02:09;;;;;;;15.00;8.95;;;;;;;;;;4991238;28;20045;-74
2024/02/17 03:04:35;;;;;;;16.35;11.13;;;;;;;;;;4991373;28;20501;-74
2024/02/17 03:07:00;;;;;;;16.53;11.73;;;;;;;;;;4991567;28;20088;-74
2024/02/17 03:09:25;;;;;;;16.63;11.82;;;;;;;;;;4991551;28;20285;-74
2024/02/17 03:11:50;;;;;;;15.95;11.27;;;;;;;;;;4990947;28;20109;-74
2024/02/17 03:14:15;;;;;;;16.42;11.68;;;;;;;;;;4990942;28;20391;-74
2024/02/17 03:16:41;;;;;;;18.98;11.88;;;;;;;;;;4990257;28;20399;-74
2024/02/17 03:19:06;;;;;;;16.33;11.48;;;;;;;;;;4996459;28;20388;-74
2024/02/17 03:21:32;;;;;;;17.15;11.57;;;;;;;;;;4990864;28;20054;-74
2024/02/17 03:23:57;;;;;;;14.57;9.85;;;;;;;;;;4991129;28;20427;-74
2024/02/17 03:26:22;;;;;;;14.05;8.85;;;;;;;;;;4991097;28;20495;-74
2024/02/17 03:28:47;;;;;;;14.93;8.90;;;;;;;;;;4991181;28;20030;-74
2024/02/17 03:31:12;;;;;;;11.95;8.35;;;;;;;;;;4990468;28;20665;-74
2024/02/17 03:33:37;;;;;;;11.63;8.25;;;;;;;;;;4991045;28;20026;-74
2024/02/17 03:36:04;;;;;;;9.90;7.10;;;;;;;;;;4991148;28;20042;-74
2024/02/17 03:38:30;;;;;;;10.73;7.13;;;;;;;;;;4990918;28;20058;-74
2024/02/17 03:40:55;;;;;;;11.77;8.25;;;;;;;;;;4990771;28;20518;-74
2024/02/17 03:43:20;;;;;;;12.02;8.18;;;;;;;;;;4990333;28;20038;-74
2024/02/17 03:45:45;;;;;;;10.98;8.25;;;;;;;;;;4990485;28;20034;-74
2024/02/17 03:48:10;;;;;;;12.70;7.57;;;;;;;;;;4990930;28;20555;-74
2024/02/17 03:50:36;;;;;;;9.38;6.50;;;;;;;;;;4990148;28;20290;-74
2024/02/17 03:53:01;;;;;;;12.27;6.82;;;;;;;;;;4989712;28;20077;-74
2024/02/17 03:55:26;;;;;;;10.13;7.32;;;;;;;;;;4990622;28;20031;-74
2024/02/17 03:57:51;;;;;;;9.43;6.73;;;;;;;;;;4990866;28;20022;-74
2024/02/17 04:00:16;;;;;;;10.85;7.13;;;;;;;;;;4989979;28;20351;-74
2024/02/17 04:02:42;;;;;;;9.15;7.10;;;;;;;;;;4991024;28;20030;-74
2024/02/17 04:05:10;;;;;;;10.65;7.85;;;;;;;;;;4990631;28;20054;-74
2024/02/17 04:07:35;;;;;;;11.00;8.10;;;;;;;;;;4990512;28;20034;-75
2024/02/17 04:10:01;;;;;;;10.38;7.55;;;;;;;;;;4990445;28;20437;-75
2024/02/17 04:12:26;;;;;;;11.13;8.05;;;;;;;;;;4990096;28;20034;-75
2024/02/17 04:14:51;;;;;;;11.38;8.10;;;;;;;;;;4990497;28;20030;-75
2024/02/17 04:17:16;;;;;;;12.15;8.57;;;;;;;;;;4990348;28;20049;-74
2024/02/17 04:19:41;;;;;;;11.98;8.25;;;;;;;;;;4990551;28;20033;-74
2024/02/17 04:22:07;;;;;;;9.60;7.72;;;;;;;;;;4990262;28;20034;-74
2024/02/17 04:24:32;;;;;;;10.80;7.93;;;;;;;;;;4990248;28;20194;-74
2024/02/17 04:26:57;;;;;;;10.73;7.85;;;;;;;;;;4989669;28;20032;-74
2024/02/17 04:29:22;;;;;;;11.37;7.87;;;;;;;;;;4991929;28;20053;-75
2024/02/17 04:31:47;;;;;;;13.07;8.37;;;;;;;;;;4988882;28;20345;-75
2024/02/17 04:34:12;;;;;;;12.87;7.93;;;;;;;;;;4990063;28;20840;-74
2024/02/17 04:36:38;;;;;;;11.65;7.60;;;;;;;;;;4990310;28;20356;-74
2024/02/17 04:39:03;;;;;;;11.00;7.70;;;;;;;;;;4990360;28;20277;-74
2024/02/17 04:41:28;;;;;;;15.25;8.52;;;;;;;;;;4987395;28;20669;-75
2024/02/17 04:43:53;;;;;;;11.70;8.10;;;;;;;;;;4988720;28;20065;-75
2024/02/17 04:46:18;;;;;;;11.03;7.77;;;;;;;;;;4990168;28;20030;-74
2024/02/17 04:48:43;;;;;;;12.00;7.80;;;;;;;;;;4990319;28;20281;-75
2024/02/17 04:51:09;;;;;;;12.97;8.80;;;;;;;;;;4989710;28;20301;-75
2024/02/17 04:53:34;;;;;;;12.25;7.40;;;;;;;;;;4991978;28;20400;-75
2024/02/17 04:55:59;;;;;;;9.77;6.37;;;;;;;;;;4992423;28;20521;-75
2024/02/17 04:58:24;;;;;;;10.20;6.90;;;;;;;;;;4992051;28;20285;-75
2024/02/17 05:00:49;;;;;;;10.67;6.90;;;;;;;;;;4992055;28;20273;-75
2024/02/17 05:03:15;;;;;;;10.95;7.53;;;;;;;;;;4993624;28;20293;-75
2024/02/17 05:05:41;;;;;;;10.43;6.60;;;;;;;;;;4993744;28;20164;-75
2024/02/17 05:08:06;;;;;;;9.13;5.82;;;;;;;;;;4993624;28;20054;-75
2024/02/17 05:10:31;;;;;;;9.57;7.07;;;;;;;;;;4992817;28;20545;-75
2024/02/17 05:12:56;;;;;;;10.90;6.60;;;;;;;;;;4993565;28;20034;-75
2024/02/17 05:15:21;;;;;;;8.80;6.13;;;;;;;;;;4993103;28;20294;-75
2024/02/17 05:17:47;;;;;;;9.73;5.88;;;;;;;;;;4993545;28;20292;-75
2024/02/17 05:20:12;;;;;;;9.48;5.95;;;;;;;;;;4992901;28;20041;-75
2024/02/17 05:22:38;;;;;;;9.30;5.68;;;;;;;;;;4992121;28;20069;-75
2024/02/17 05:25:03;;;;;;;10.20;6.15;;;;;;;;;;4993404;28;20034;-75
2024/02/17 05:27:28;;;;;;;14.10;6.93;;;;;;;;;;4994240;28;20042;-75
2024/02/17 05:29:53;;;;;;;9.20;5.53;;;;;;;;;;4995604;28;20042;-75
2024/02/17 05:32:19;;;;;;;10.77;5.00;;;;;;;;;;4992628;28;20459;-75
2024/02/17 05:34:44;;;;;;;9.93;6.43;;;;;;;;;;4993207;28;20021;-75
2024/02/17 05:37:09;;;;;;;11.52;6.38;;;;;;;;;;4993160;28;20812;-75
2024/02/17 05:39:34;;;;;;;9.43;6.43;;;;;;;;;;4991829;28;20046;-75
2024/02/17 05:42:00;;;;;;;10.43;5.78;;;;;;;;;;4992363;28;20487;-75
2024/02/17 05:44:25;;;;;;;11.57;5.05;;;;;;;;;;4988756;28;20042;-75
2024/02/17 05:46:51;;;;;;;10.07;5.72;;;;;;;;;;4992798;28;20045;-75
2024/02/17 05:49:16;;;;;;;11.77;5.80;;;;;;;;;;4992761;28;20046;-76
2024/02/17 05:51:41;;;;;;;8.55;5.95;;;;;;;;;;4992616;28;20040;-75
2024/02/17 05:54:07;;;;;;;9.77;6.22;;;;;;;;;;4992820;28;20035;-75
2024/02/17 05:56:32;;;;;;;8.95;5.88;;;;;;;;;;4992531;28;20042;-75
2024/02/17 05:58:57;;;;;;;10.35;6.07;;;;;;;;;;4990836;28;20176;-75
2024/02/17 06:01:22;;;;;;;9.20;5.88;;;;;;;;;;4989549;28;20077;-75
2024/02/17 06:03:48;;;;;;;10.20;6.60;;;;;;;;;;4992680;28;20109;-75
2024/02/17 06:06:13;;;;;;;9.65;6.28;;;;;;;;;;4992183;28;20483;-75
2024/02/17 06:08:38;;;;;;;11.00;6.50;;;;;;;;;;4991107;28;20077;-75
2024/02/17 06:11:03;;;;;;;13.15;7.60;;;;;;;;;;4992010;28;20108;-76
2024/02/17 06:13:28;;;;;;;13.32;7.65;;;;;;;;;;4990455;28;20035;-75
2024/02/17 06:15:54;;;;;;;12.93;8.18;;;;;;;;;;4992507;28;20045;-75
2024/02/17 06:21:18;;;;;;;13.38;8.32;;;;;;;;;;4992002;28;20034;-75
2024/02/17 06:23:43;;;;;;;15.57;7.90;;;;;;;;;;4988456;28;20027;-75
2024/02/17 06:26:38;;;;;;;14.00;8.43;;;;;;;;;;4992499;28;20457;-75
2024/02/17 06:29:03;;;;;;;15.45;8.95;;;;;;;;;;4975249;28;20046;-75
2024/02/17 06:31:29;;;;;;;17.48;8.65;;;;;;;;;;4989479;28;20049;-75
2024/02/17 06:33:54;;;;;;;16.67;9.68;;;;;;;;;;4991399;28;20042;-75
2024/02/17 06:36:19;;;;;;;18.63;10.90;;;;;;;;;;4994009;28;20783;-76
2024/02/17 06:38:45;;;;;;;14.23;9.30;;;;;;;;;;4994093;28;20470;-76
2024/02/17 06:41:13;;;;;;;18.85;10.85;;;;;;;;;;4992081;28;20096;-76
2024/02/17 06:43:38;;;;;;;16.00;9.35;;;;;;;;;;4994315;28;20088;-77
2024/02/17 06:46:07;;;;;;;15.45;9.98;;;;;;;;;;4992568;28;20088;-77
2024/02/17 06:48:32;;;;;;;15.60;9.38;;;;;;;;;;4992694;28;20168;-77
2024/02/17 06:50:57;;;;;;;16.63;10.02;;;;;;;;;;4991264;28;20129;-77
2024/02/17 06:53:22;;;;;;;16.00;10.63;;;;;;;;;;4992123;28;20475;-77
2024/02/17 06:55:48;;;;;;;17.33;11.15;;;;;;;;;;4989367;28;20033;-77
2024/02/17 06:58:14;;;;;;;15.75;11.07;;;;;;;;;;4992131;28;20022;-77
2024/02/17 07:00:39;;;;;;;18.73;12.05;;;;;;;;;;4990495;28;20495;-77
2024/02/17 07:03:04;;;;;;;18.90;10.60;;;;;;;;;;4994828;28;20030;-77
2024/02/17 07:05:31;;;;;;;16.48;11.10;;;;;;;;;;4982455;28;20352;-76
2024/02/17 07:07:56;;;;;;;16.52;10.80;;;;;;;;;;4989036;28;20053;-76
2024/02/17 07:10:22;;;;;;;17.90;10.52;;;;;;;;;;4988700;28;20033;-77
2024/02/17 07:12:47;;;;;;;17.77;11.60;;;;;;;;;;4988174;28;20030;-76
2024/02/17 07:15:12;;;;;;;16.63;10.93;;;;;;;;;;4991493;28;20034;-77
2024/02/17 07:17:37;;;;;;;16.52;11.30;;;;;;;;;;4985525;28;20026;-77
2024/02/17 07:20:04;;;;;;;16.67;11.15;;;;;;;;;;4991069;28;20038;-77
2024/02/17 07:22:29;;;;;;;16.30;10.40;;;;;;;;;;4990691;28;20042;-77
2024/02/17 07:24:54;;;;;;;15.98;10.65;;;;;;;;;;4983752;28;20045;-77
2024/02/17 07:27:20;;;;;;;15.68;10.00;;;;;;;;;;4991258;28;20025;-77
2024/02/17 07:29:45;;;;;;;16.90;10.57;;;;;;;;;;4990989;28;20088;-77
2024/02/17 07:32:11;;;;;;;16.73;10.57;;;;;;;;;;4992241;28;20418;-77
2024/02/17 07:34:38;;;;;;;13.70;8.85;;;;;;;;;;4988901;28;21359;-77
2024/02/17 07:37:03;;;;;;;11.73;7.80;;;;;;;;;;4990137;28;20038;-77
2024/02/17 07:39:29;;;;;;;16.58;9.35;;;;;;;;;;4989126;28;20027;-77
2024/02/17 07:41:55;;;;;;;16.95;9.35;;;;;;;;;;4989737;28;20453;-77
2024/02/17 07:44:23;;;;;;;14.13;9.60;;;;;;;;;;4987360;28;20034;-77
2024/02/17 07:46:49;;;;;;;13.35;8.55;;;;;;;;;;4989425;28;20615;-77
2024/02/17 07:49:14;;;;;;;13.93;8.95;;;;;;;;;;4990638;28;20026;-77
2024/02/17 07:51:40;;;;;;;18.73;9.25;;;;;;;;;;4989084;28;20140;-77
2024/02/17 07:54:05;;;;;;;12.88;8.05;;;;;;;;;;4988443;28;20506;-77
2024/02/17 07:56:30;;;;;;;13.02;8.27;;;;;;;;;;4987950;28;20423;-76
2024/02/17 07:58:56;;;;;;;11.32;7.40;;;;;;;;;;4989126;28;20414;-77
2024/02/17 08:01:21;;;;;;;12.82;7.90;;;;;;;;;;4986069;28;20035;-76
2024/02/17 08:03:46;;;;;;;14.60;7.90;;;;;;;;;;4988352;28;20629;-77
2024/02/17 08:06:12;;;;;;;11.73;7.03;;;;;;;;;;4989186;28;20273;-77
2024/02/17 08:08:37;;;;;;;10.10;6.95;;;;;;;;;;4990829;28;20104;-77
2024/02/17 08:11:03;;;;;;;10.90;7.50;;;;;;;;;;4990133;28;20034;-77
2024/02/17 08:13:28;;;;;;;11.32;7.05;;;;;;;;;;4989848;28;20270;-76
2024/02/17 08:15:53;;;;;;;11.83;7.13;;;;;;;;;;4988710;28;20026;-77
2024/02/17 08:18:19;;;;;;;10.82;6.95;;;;;;;;;;4990546;28;20305;-77
2024/02/17 08:20:44;;;;;;;12.80;6.70;;;;;;;;;;4985023;28;20030;-77
2024/02/17 08:23:09;;;;;;;13.70;7.70;;;;;;;;;;4987443;28;20323;-77
2024/02/17 08:25:34;;;;;;;11.18;7.45;;;;;;;;;;4989045;28;20030;-76
2024/02/17 08:28:00;;;;;;;12.02;7.80;;;;;;;;;;4989951;28;20491;-76
2024/02/17 08:30:25;;;;;;;12.98;7.30;;;;;;;;;;4989672;28;20145;-76
2024/02/17 08:32:53;;;;;;;10.00;6.90;;;;;;;;;;4994135;28;20060;-76
2024/02/17 08:35:19;;;;;;;12.93;7.50;;;;;;;;;;4991009;28;20057;-76
2024/02/17 08:37:44;;;;;;;9.07;6.20;;;;;;;;;;4994889;28;20109;-75
2024/02/17 08:40:09;;;;;;;11.57;7.38;;;;;;;;;;4991662;28;20041;-76
2024/02/17 08:42:35;;;;;;;10.85;6.78;;;;;;;;;;4993582;28;20030;-76
2024/02/17 08:45:00;;;;;;;11.63;6.80;;;;;;;;;;4993421;28;20416;-76
2024/02/17 08:47:25;;;;;;;9.35;6.85;;;;;;;;;;4993899;28;20101;-76
2024/02/17 08:49:50;;;;;;;9.70;6.17;;;;;;;;;;4993828;28;20030;-76
2024/02/17 08:52:16;;;;;;;11.77;6.57;;;;;;;;;;4990881;28;20273;-76
2024/02/17 08:54:41;;;;;;;10.15;6.05;;;;;;;;;;4993469;28;20105;-76
2024/02/17 08:57:06;;;;;;;9.63;5.93;;;;;;;;;;4995014;28;20038;-76
2024/02/17 08:59:32;;;;;;;9.23;5.78;;;;;;;;;;4993416;28;20046;-76
2024/02/17 09:01:57;;;;;;;9.98;6.15;;;;;;;;;;4991041;28;20037;-76
2024/02/17 09:04:22;;;;;;;6.95;5.18;;;;;;;;;;4993441;28;20030;-76
2024/02/17 09:06:47;;;;;;;7.93;4.38;;;;;;;;;;4995422;28;20026;-76
2024/02/17 09:09:13;;;;;;;8.37;5.33;;;;;;;;;;4993521;28;20030;-76
2024/02/17 09:11:38;;;;;;;8.00;4.57;;;;;;;;;;4991023;28;20293;-76
2024/02/17 09:14:03;;;;;;;8.85;4.13;;;;;;;;;;4993384;28;20030;-76
2024/02/17 09:16:28;;;;;;;7.85;4.40;;;;;;;;;;4991799;28;20031;-76
2024/02/17 09:18:53;;;;;;;7.50;3.90;;;;;;;;;;4993384;28;20411;-76
2024/02/17 09:21:19;;;;;;;7.50;4.22;;;;;;;;;;4992542;28;20038;-76
2024/02/17 09:23:44;;;;;;;6.65;3.88;;;;;;;;;;4993382;28;20022;-76
2024/02/17 09:26:09;;;;;;;7.85;4.00;;;;;;;;;;4992192;28;20031;-76
2024/02/17 09:28:34;;;;;;;6.50;3.67;;;;;;;;;;4992952;28;20034;-76
2024/02/17 09:30:59;;;;;;;9.00;4.70;;;;;;;;;;4992017;28;20026;-76
2024/02/17 09:33:28;;;;;;;8.90;3.85;;;;;;;;;;4992211;28;20026;-76
2024/02/17 09:35:53;;;;;;;8.63;4.13;;;;;;;;;;4991857;28;20273;-76
2024/02/17 09:38:18;;;;;;;12.45;6.15;;;;;;;;;;4993581;28;20031;-76
2024/02/17 09:40:44;;;;;;;5.85;3.22;;;;;;;;;;4991849;28;20034;-76
2024/02/17 09:43:09;;;;;;;7.35;3.42;;;;;;;;;;4985473;28;20046;-76
2024/02/17 09:45:34;;;;;;;7.55;3.63;;;;;;;;;;4991590;28;20527;-76
2024/02/17 09:47:59;;;;;;;5.10;3.30;;;;;;;;;;4992273;28;20444;-76
2024/02/17 09:50:26;;;;;;;6.22;3.33;;;;;;;;;;4988239;28;20451;-75
2024/02/17 09:52:52;;;;;;;7.47;3.60;;;;;;;;;;4993392;28;20134;-76
2024/02/17 09:55:17;;;;;;;5.75;3.10;;;;;;;;;;4990409;28;20436;-75
2024/02/17 09:57:43;;;;;;;6.63;3.63;;;;;;;;;;4992275;28;20041;-75
2024/02/17 10:00:10;;;;;;;8.85;3.10;;;;;;;;;;4991613;28;20042;-75
2024/02/17 10:02:37;;;;;;;8.02;3.60;;;;;;;;;;4992288;28;20122;-75
2024/02/17 10:05:02;;;;;;;7.53;3.50;;;;;;;;;;4989734;28;20132;-76
2024/02/17 10:07:28;;;;;;;6.65;3.47;;;;;;;;;;4991689;28;20038;-75
2024/02/17 10:09:53;;;;;;;5.95;2.92;;;;;;;;;;4990423;28;20458;-75
2024/02/17 10:12:18;;;;;;;7.47;3.38;;;;;;;;;;4988444;28;20054;-76
2024/02/17 10:14:44;;;;;;;6.40;3.33;;;;;;;;;;4988515;28;20106;-75
2024/02/17 10:17:09;;;;;;;7.13;3.22;;;;;;;;;;4992267;28;20034;-75
2024/02/17 10:19:34;;;;;;;5.35;2.85;;;;;;;;;;4990524;28;20588;-75
2024/02/17 10:22:00;;;;;;;7.38;2.70;;;;;;;;;;4991700;28;20030;-75
2024/02/17 10:24:25;;;;;;;6.35;2.95;;;;;;;;;;4988938;28;20122;-75
2024/02/17 10:26:51;;;;;;;4.68;2.20;;;;;;;;;;4994388;28;20045;-75
2024/02/17 10:29:16;;;;;;;7.25;2.53;;;;;;;;;;4986117;28;20077;-75
2024/02/17 10:31:42;;;;;;;5.80;2.80;;;;;;;;;;4991263;28;20035;-75
2024/02/17 10:34:07;;;;;;;6.38;2.75;;;;;;;;;;4991035;28;20097;-75
2024/02/17 10:36:32;;;;;;;7.50;3.22;;;;;;;;;;4989876;28;20037;-75
2024/02/17 10:38:59;;;;;;;5.15;2.70;;;;;;;;;;4989031;28;20109;-75
2024/02/17 10:41:25;;;;;;;5.80;2.90;;;;;;;;;;4988650;28;20559;-75
2024/02/17 10:43:50;;;;;;;5.68;2.85;;;;;;;;;;4985102;28;20109;-75
2024/02/17 10:46:24;;;;;;;5.80;2.95;;;;;;;;;;4985276;28;20065;-75
2024/02/17 10:49:03;;;;;;;4.97;2.60;;;;;;;;;;4989566;28;20038;-75
2024/02/17 10:51:29;;;;;;;4.63;2.70;;;;;;;;;;4989456;28;20490;-77
2024/02/17 10:53:58;;;;;;;6.20;2.63;;;;;;;;;;4989344;28;20042;-76
2024/02/17 10:56:23;;;;;;;7.90;3.00;;;;;;;;;;4989143;28;20034;-76
2024/02/17 10:58:49;;;;;;;7.50;3.42;;;;;;;;;;4992022;28;20033;-76
2024/02/17 11:01:16;;;;;;;7.13;2.65;;;;;;;;;;4989613;28;20376;-76
2024/02/17 11:03:44;;;;;;;4.45;2.40;;;;;;;;;;4992016;28;20047;-77
2024/02/17 11:06:11;;;;;;;7.38;3.25;;;;;;;;;;4991233;28;20391;-77
2024/02/17 11:08:37;;;;;;;9.65;3.20;;;;;;;;;;4996793;28;20042;-77
2024/02/17 11:11:21;;;;;;;5.97;2.75;;;;;;;;;;4991498;28;20391;-77
2024/02/17 11:13:47;;;;;;;6.03;2.90;;;;;;;;;;4993194;28;20176;-77
2024/02/17 11:16:12;;;;;;;7.43;3.67;;;;;;;;;;4992637;28;20113;-77
2024/02/17 11:18:39;;;;;;;9.73;3.47;;;;;;;;;;4992012;28;20053;-77
2024/02/17 11:21:04;;;;;;;7.25;3.28;;;;;;;;;;4989466;28;20034;-77
2024/02/17 11:23:34;;;;;;;6.82;3.28;;;;;;;;;;4992519;28;20027;-77
2024/02/17 11:25:59;;;;;;;6.68;3.55;;;;;;;;;;4989480;28;20495;-77
2024/02/17 11:28:24;;;;;;;7.10;3.55;;;;;;;;;;4994954;28;20042;-77
2024/02/17 11:31:00;;;;;;;6.20;3.22;;;;;;;;;;4993525;28;20164;-77
2024/02/17 11:33:27;;;;;;;4.00;2.75;;;;;;;;;;4992250;28;20053;-77
2024/02/17 11:35:52;;;;;;;9.40;3.13;;;;;;;;;;4992769;28;20034;-77
2024/02/17 11:38:25;;;;;;;7.15;2.90;;;;;;;;;;4992242;28;20039;-77
2024/02/17 11:40:54;;;;;;;6.43;2.50;;;;;;;;;;4986588;28;20037;-77
2024/02/17 11:43:21;;;;;;;7.20;2.80;;;;;;;;;;4992263;28;20129;-77
2024/02/17 11:45:46;;;;;;;4.75;2.45;;;;;;;;;;4991345;28;20026;-76
2024/02/17 11:48:13;;;;;;;6.90;2.70;;;;;;;;;;4989304;28;20376;-77
2024/02/17 11:50:38;;;;;;;8.63;3.20;;;;;;;;;;4988593;28;20049;-77
2024/02/17 11:53:04;;;;;;;6.32;2.92;;;;;;;;;;4990890;28;20454;-77
2024/02/17 11:55:30;;;;;;;7.80;2.97;;;;;;;;;;4990263;28;20030;-77
2024/02/17 11:57:59;;;;;;;5.68;2.70;;;;;;;;;;4991655;28;20529;-77
2024/02/17 12:00:24;;;;;;;5.97;2.33;;;;;;;;;;4988005;28;20081;-77
2024/02/17 12:02:50;;;;;;;6.15;2.90;;;;;;;;;;4990266;28;20034;-76
2024/02/17 12:05:15;;;;;;;6.97;2.55;;;;;;;;;;4987178;28;20140;-77
2024/02/17 12:07:41;;;;;;;6.53;2.60;;;;;;;;;;4988695;28;20026;-77
2024/02/17 12:10:09;;;;;;;6.80;2.42;;;;;;;;;;4990465;28;20533;-77
2024/02/17 12:12:39;;;;;;;5.35;2.75;;;;;;;;;;4989923;28;20033;-77
2024/02/17 12:15:11;;;;;;;6.88;2.50;;;;;;;;;;4988544;28;20109;-77
2024/02/17 12:17:43;;;;;;;4.53;2.55;;;;;;;;;;4990494;28;20026;-77
2024/02/17 12:20:11;;;;;;;3.63;1.95;;;;;;;;;;4986635;28;20043;-77
2024/02/17 12:22:36;;;;;;;4.72;2.30;;;;;;;;;;4989485;28;20042;-76
2024/02/17 12:25:03;;;;;;;5.93;2.63;;;;;;;;;;4988287;28;20045;-76
2024/02/17 12:27:28;;;;;;;5.80;2.67;;;;;;;;;;4987859;28;20042;-76
2024/02/17 12:29:53;;;;;;;4.28;2.60;;;;;;;;;;4988937;28;20085;-76
2024/02/17 12:32:19;;;;;;;5.23;2.60;;;;;;;;;;4986037;28;20041;-76
2024/02/17 12:34:45;;;;;;;4.18;2.10;;;;;;;;;;4988161;28;20273;-76
2024/02/17 12:37:10;;;;;;;5.33;2.40;;;;;;;;;;4986485;28;20034;-76
2024/02/17 12:39:35;;;;;;;6.07;2.75;;;;;;;;;;4985470;28;20313;-76
2024/02/17 12:42:04;;;;;;;4.80;2.17;;;;;;;;;;4987235;28;20042;-76
2024/02/17 12:44:30;;;;;;;5.28;2.25;;;;;;;;;;4988605;28;20144;-76
2024/02/17 12:46:55;;;;;;;5.15;2.42;;;;;;;;;;4991780;28;20511;-77
2024/02/17 12:49:27;;;;;;;6.15;3.03;;;;;;;;;;4988082;28;20046;-76
2024/02/17 12:51:52;;;;;;;;;;;;;;;;;;4988572;28;20467;-77
2024/02/17 12:54:18;;;;;;;5.13;2.63;;;;;;;;;;4990381;28;19941;-77
2024/02/17 12:56:44;;;;;;;4.60;2.53;;;;;;;;;;4989513;28;20042;-77
2024/02/17 12:59:09;;;;;;;7.95;3.00;;;;;;;;;;4991463;28;20065;-77
2024/02/17 13:01:34;;;;;;;6.80;3.30;;;;;;;;;;4991416;28;20070;-77
2024/02/17 13:03:59;;;;;;;5.82;2.50;;;;;;;;;;4991678;28;20121;-77
2024/02/17 13:06:25;;;;;;;5.95;2.20;;;;;;;;;;4993998;28;20097;-77
2024/02/17 13:08:51;;;;;;;4.78;1.88;;;;;;;;;;4990206;28;20034;-77
2024/02/17 13:11:16;;;;;;;5.95;1.80;;;;;;;;;;4989946;28;20042;-77
2024/02/17 13:13:41;;;;;;;4.45;1.60;;;;;;;;;;4989944;28;20034;-77
2024/02/17 13:16:07;;;;;;;5.55;1.90;;;;;;;;;;4988826;28;20055;-77
2024/02/17 13:18:34;;;;;;;2.30;1.40;;;;;;;;;;4993971;28;20113;-78
2024/02/17 13:20:59;;;;;;;4.18;2.05;;;;;;;;;;4993648;28;20038;-77
2024/02/17 13:23:24;;;;;;;4.95;1.88;;;;;;;;;;4994391;28;20407;-77
2024/02/17 13:25:50;;;;;;;3.55;1.40;;;;;;;;;;4993214;28;20045;-77
2024/02/17 13:28:15;;;;;;;3.83;1.40;;;;;;;;;;4994463;28;20690;-78
2024/02/17 13:30:42;;;;;;;3.20;1.30;;;;;;;;;;4992812;28;20038;-78
2024/02/17 13:33:08;;;;;;;3.47;1.67;;;;;;;;;;4994723;28;20707;-77
2024/02/17 13:35:33;;;;;;;3.97;1.60;;;;;;;;;;4989223;28;20059;-77
2024/02/17 13:37:58;;;;;;;3.58;1.45;;;;;;;;;;4994745;28;20125;-77
2024/02/17 13:40:23;;;;;;;3.33;1.20;;;;;;;;;;4992984;28;20038;-77
2024/02/17 13:42:48;;;;;;;3.95;1.38;;;;;;;;;;4994326;28;20284;-77
2024/02/17 13:45:13;;;;;;;3.65;1.00;;;;;;;;;;4995516;28;20058;-78
2024/02/17 13:47:39;;;;;;;3.80;1.10;;;;;;;;;;4993986;28;20042;-77
2024/02/17 13:50:06;;;;;;;1.83;0.70;;;;;;;;;;4994499;28;20061;-77
2024/02/17 13:52:31;;;;;;;1.90;0.60;;;;;;;;;;4993147;28;20085;-77
2024/02/17 13:54:58;;;;;;;3.03;0.80;;;;;;;;;;4993695;28;20439;-77
2024/02/17 13:57:23;;;;;;;2.35;1.00;;;;;;;;;;4993074;28;20042;-77
2024/02/17 13:59:48;;;;;;;3.40;0.75;;;;;;;;;;4993935;28;20030;-77
2024/02/17 14:02:13;;;;;;;2.03;1.02;;;;;;;;;;4989863;28;20030;-77
2024/02/17 14:04:39;;;;;;;1.75;0.60;;;;;;;;;;4993971;28;20109;-77
2024/02/17 14:07:04;;;;;;;1.83;0.77;;;;;;;;;;4987008;28;20026;-78
2024/02/17 14:09:29;;;;;;;2.70;0.70;;;;;;;;;;4990545;28;20108;-79
2024/02/17 14:11:54;;;;;;;2.60;0.82;;;;;;;;;;4992661;28;20069;-77
2024/02/17 14:14:20;;;;;;;1.45;0.60;;;;;;;;;;4993290;28;20054;-77
2024/02/17 14:16:45;;;;;;;2.55;0.70;;;;;;;;;;4992880;28;20522;-78
2024/02/17 14:19:10;;;;;;;1.98;0.40;;;;;;;;;;4993405;28;20281;-78
2024/02/17 14:21:35;;;;;;;1.90;0.60;;;;;;;;;;4989372;28;20026;-78
2024/02/17 14:24:01;;;;;;;1.95;0.60;;;;;;;;;;4993536;28;20495;-78
2024/02/17 14:26:26;;;;;;;1.38;0.70;;;;;;;;;;4993355;28;20035;-78